Time;durP1;ratioP1;P1;durP2;ratioP2;P2;SDS_P1;SDS_P2;PMS_P1;PMS_P2;Temp;Humidity;BMP_temperature;BMP_pressure;BME280_temperature;BME280_humidity;BME280_pressure;Samples;Min_cycle;Max_cycle;Signal;HPM_P1;HPM_P2
2022/05/22 00:00:07;;;;;;;13.57;7.47;;;;;;;13.64;76.93;101907.78;4990653;28;20041;-74
2022/05/22 00:02:32;;;;;;;11.25;7.53;;;;;;;13.61;76.92;101907.69;4990312;28;20026;-74
2022/05/22 00:04:58;;;;;;;14.32;7.57;;;;;;;13.62;77.02;101903.38;4990689;28;20065;-74
2022/05/22 00:07:23;;;;;;;14.43;7.15;;;;;;;13.62;76.70;101903.38;4991553;28;20555;-74
2022/05/22 00:09:48;;;;;;;13.68;7.60;;;;;;;13.63;76.92;101898.19;4991084;28;20014;-74
2022/05/22 00:12:14;;;;;;;13.25;7.32;;;;;;;13.64;77.00;101897.31;4990801;28;20421;-74
2022/05/22 00:14:39;;;;;;;18.05;7.93;;;;;;;13.62;77.51;101888.53;4972009;28;20156;-74
2022/05/22 00:17:06;;;;;;;12.23;7.30;;;;;;;13.62;77.58;101887.66;4991518;28;20022;-74
2022/05/22 00:19:32;;;;;;;14.45;7.35;;;;;;;13.63;78.04;101889.41;4990831;28;20026;-74
2022/05/22 00:21:58;;;;;;;15.40;6.95;;;;;;;13.65;78.29;101892.97;4990824;28;20030;-74
2022/05/22 00:24:25;;;;;;;11.93;7.57;;;;;;;13.65;78.69;101886.00;4990051;28;20094;-74
2022/05/22 00:26:51;;;;;;;14.80;7.95;;;;;;;13.70;79.19;101887.03;4991442;28;20030;-74
2022/05/22 00:29:17;;;;;;;16.73;8.45;;;;;;;13.76;77.87;101886.31;4990047;28;20046;-74
2022/05/22 00:31:43;;;;;;;15.82;8.15;;;;;;;13.76;78.26;101875.84;4990481;28;20030;-74
2022/05/22 00:34:10;;;;;;;18.15;9.32;;;;;;;13.78;78.96;101873.25;4972204;28;20049;-74
2022/05/22 00:36:35;;;;;;;13.38;8.85;;;;;;;13.77;79.19;101871.47;4990995;28;20038;-74
2022/05/22 00:39:01;;;;;;;17.80;9.10;;;;;;;13.83;78.16;101877.78;4990339;28;20405;-74
2022/05/22 00:41:27;;;;;;;17.20;9.50;;;;;;;13.79;78.23;101877.63;4990667;28;20083;-74
2022/05/22 00:43:54;;;;;;;17.88;9.30;;;;;;;13.77;78.33;101871.47;4990435;28;20053;-74
2022/05/22 00:46:21;;;;;;;14.82;8.52;;;;;;;13.79;78.06;101869.75;4991147;28;20037;-74
2022/05/22 00:48:49;;;;;;;12.43;8.85;;;;;;;13.75;78.47;101871.44;4990662;28;20026;-74
2022/05/22 00:51:24;;;;;;;13.45;9.25;;;;;;;13.74;78.20;101867.94;4990960;28;20034;-74
2022/05/22 00:54:06;;;;;;;13.30;8.98;;;;;;;13.74;77.72;101864.41;4989506;28;20026;-74
2022/05/22 00:56:36;;;;;;;14.45;9.25;;;;;;;13.68;78.32;101870.38;4990899;28;20026;-74
2022/05/22 00:59:07;;;;;;;17.08;9.77;;;;;;;13.67;78.23;101863.38;4990429;28;20034;-73
2022/05/22 01:01:33;;;;;;;16.75;8.98;;;;;;;13.66;78.27;101863.34;4990761;28;20030;-74
2022/05/22 01:03:59;;;;;;;17.35;9.27;;;;;;;13.60;78.37;101856.19;4973319;28;20559;-74
2022/05/22 01:06:26;;;;;;;16.42;9.15;;;;;;;13.57;78.44;101854.38;4990749;28;20037;-74
2022/05/22 01:08:52;;;;;;;13.45;9.13;;;;;;;13.57;78.11;101862.22;4990365;28;20034;-74
2022/05/22 01:11:23;;;;;;;15.43;9.05;;;;;;;13.54;78.08;101850.75;4990888;28;20030;-74
2022/05/22 01:13:58;;;;;;;14.70;9.55;;;;;;;13.58;77.40;101860.47;4990024;28;20064;-74
2022/05/22 01:16:25;;;;;;;17.13;8.95;;;;;;;13.53;77.20;101859.50;4990564;28;20030;-73
2022/05/22 01:18:54;;;;;;;14.52;9.63;;;;;;;13.48;77.25;101871.56;4990682;28;20039;-74
2022/05/22 01:21:30;;;;;;;15.98;9.25;;;;;;;13.45;76.92;101866.22;4990209;28;20034;-74
2022/05/22 01:23:56;;;;;;;17.25;8.70;;;;;;;13.41;77.05;101872.22;4990021;28;20088;-74
2022/05/22 01:26:24;;;;;;;16.42;9.18;;;;;;;13.35;76.70;101858.13;4990187;28;20046;-74
2022/05/22 01:28:50;;;;;;;17.65;10.30;;;;;;;13.31;76.49;101861.47;4988829;28;20053;-73
2022/05/22 01:31:16;;;;;;;19.00;10.68;;;;;;;13.26;76.52;101857.81;4991701;28;20034;-73
2022/05/22 01:33:42;;;;;;;18.35;10.05;;;;;;;13.26;77.10;101855.19;4992920;28;20116;-73
2022/05/22 01:36:08;;;;;;;17.40;9.75;;;;;;;13.21;77.37;101841.09;4994065;28;20038;-73
2022/05/22 01:38:35;;;;;;;16.85;10.10;;;;;;;13.14;77.12;101839.16;4994154;28;20041;-74
2022/05/22 01:41:00;;;;;;;16.92;9.48;;;;;;;13.14;77.58;101837.41;4994326;28;20038;-73
2022/05/22 01:43:26;;;;;;;16.15;9.60;;;;;;;13.11;76.90;101832.09;4993767;28;20494;-73
2022/05/22 01:45:54;;;;;;;18.42;9.40;;;;;;;13.05;76.77;101831.94;4993564;28;20108;-73
2022/05/22 01:48:20;;;;;;;15.60;9.18;;;;;;;13.00;76.91;101825.66;4994112;28;20018;-74
2022/05/22 01:50:45;;;;;;;17.38;9.55;;;;;;;12.94;76.69;101831.59;4993608;28;20378;-74
2022/05/22 01:53:11;;;;;;;15.00;9.90;;;;;;;12.90;76.58;101829.72;4994140;28;20045;-74
2022/05/22 01:55:37;;;;;;;19.90;10.57;;;;;;;12.86;76.53;101827.84;4993670;28;20045;-74
2022/05/22 01:58:06;;;;;;;17.80;10.23;;;;;;;12.77;76.69;101827.59;4992687;28;20030;-74
2022/05/22 02:00:31;;;;;;;;;;;;;;;12.93;75.51;101832.44;4993311;28;20061;-73
2022/05/22 02:02:57;;;;;;;15.05;9.05;;;;;;;12.80;76.52;101832.91;4994053;28;19956;-73
2022/05/22 02:05:22;;;;;;;15.25;9.50;;;;;;;12.74;76.83;101832.72;4993135;28;20092;-74
2022/05/22 02:10:33;;;;;;;17.10;9.93;;;;;;;12.63;77.36;101814.97;4988488;28;20398;-74
2022/05/22 02:12:59;;;;;;;20.08;10.38;;;;;;;12.60;76.67;101814.91;4983835;28;20030;-74
2022/05/22 02:15:25;;;;;;;17.23;9.68;;;;;;;12.59;76.74;101818.34;4992775;28;20022;-74
2022/05/22 02:17:51;;;;;;;17.70;10.00;;;;;;;12.52;76.67;101812.03;4993979;28;20037;-74
2022/05/22 02:20:17;;;;;;;15.57;9.35;;;;;;;12.53;77.47;101810.31;4992920;28;20026;-74
2022/05/22 02:22:46;;;;;;;17.15;10.00;;;;;;;12.51;77.84;101810.28;4993863;28;20029;-74
2022/05/22 02:25:14;;;;;;;14.40;9.70;;;;;;;12.51;77.90;101806.75;4992497;28;20038;-74
2022/05/22 02:27:39;;;;;;;17.13;9.80;;;;;;;12.50;78.09;101802.38;4992852;28;20523;-74
2022/05/22 02:30:06;;;;;;;14.93;9.00;;;;;;;12.46;77.17;101801.38;4992433;28;20042;-74
2022/05/22 02:32:31;;;;;;;15.27;9.57;;;;;;;12.43;77.15;101795.19;4993591;28;20122;-74
2022/05/22 02:34:56;;;;;;;19.95;10.50;;;;;;;12.41;77.35;101789.00;4975051;28;20136;-74
2022/05/22 02:37:22;;;;;;;19.15;10.40;;;;;;;12.36;77.56;101783.63;4992467;28;20121;-74
2022/05/22 02:39:48;;;;;;;17.95;10.77;;;;;;;12.31;77.21;101780.88;4993323;28;20113;-74
2022/05/22 02:42:13;;;;;;;16.75;10.20;;;;;;;12.28;77.73;101778.19;4992037;28;20042;-74
2022/05/22 02:44:39;;;;;;;17.50;9.98;;;;;;;12.28;77.26;101782.50;4992776;28;20026;-74
2022/05/22 02:47:04;;;;;;;14.73;9.93;;;;;;;12.25;77.25;101775.47;4990855;28;20030;-74
2022/05/22 02:49:29;;;;;;;17.80;9.93;;;;;;;12.24;77.79;101773.69;4993238;28;20022;-74
2022/05/22 02:51:54;;;;;;;14.63;10.00;;;;;;;12.26;77.10;101777.22;4992497;28;20027;-72
2022/05/22 02:54:21;;;;;;;15.25;9.68;;;;;;;12.23;78.22;101771.91;4991987;28;20080;-71
2022/05/22 02:56:46;;;;;;;16.55;10.18;;;;;;;12.22;77.88;101774.47;4992459;28;20081;-71
2022/05/22 02:59:12;;;;;;;15.75;9.70;;;;;;;12.19;77.65;101780.47;4992862;28;20398;-71
2022/05/22 03:01:37;;;;;;;17.05;10.20;;;;;;;12.17;77.63;101777.81;4992379;28;20452;-71
2022/05/22 03:04:03;;;;;;;15.05;10.38;;;;;;;12.16;77.78;101780.38;4992391;28;20034;-71
2022/05/22 03:06:38;;;;;;;17.67;9.23;;;;;;;12.12;77.80;101774.19;4987997;28;20445;-72
2022/05/22 03:09:04;;;;;;;14.88;9.55;;;;;;;12.07;77.60;101780.97;5193707;22;20060;-96
2022/05/22 03:11:29;;;;;;;15.32;9.57;;;;;;;12.05;77.76;101771.31;5060101;22;20055;-74
2022/05/22 03:13:55;;;;;;;16.98;10.18;;;;;;;12.07;77.86;101767.03;5025009;28;20061;-74
2022/05/22 03:16:20;;;;;;;18.15;10.30;;;;;;;12.05;77.99;101771.31;5027429;28;20053;-74
2022/05/22 03:18:45;;;;;;;19.58;10.43;;;;;;;11.99;77.95;101770.28;5023267;28;20034;-74
2022/05/22 03:21:12;;;;;;;18.00;10.18;;;;;;;11.96;77.94;101761.44;5023522;28;20021;-74
2022/05/22 03:23:38;;;;;;;16.77;10.20;;;;;;;11.92;77.96;101780.44;5030647;28;20041;-74
2022/05/22 03:26:04;;;;;;;17.90;10.02;;;;;;;11.93;77.88;101772.69;5031043;28;20026;-74
2022/05/22 03:28:29;;;;;;;16.90;9.95;;;;;;;11.94;77.74;101757.91;5030810;28;20036;-74
2022/05/22 03:30:54;;;;;;;15.93;10.05;;;;;;;11.93;78.06;101759.63;5020369;28;20026;-74
2022/05/22 03:33:19;;;;;;;18.33;10.20;;;;;;;11.93;77.82;101754.41;5027801;28;20043;-74
2022/05/22 03:35:45;;;;;;;18.00;9.95;;;;;;;11.92;78.14;101746.47;5031578;28;20026;-74
2022/05/22 03:38:10;;;;;;;14.57;10.55;;;;;;;11.90;78.09;101756.88;5029902;28;20021;-74
2022/05/22 03:40:45;;;;;;;18.70;11.18;;;;;;;11.83;78.01;101763.66;5031306;28;20473;-74
2022/05/22 03:43:12;;;;;;;18.52;10.15;;;;;;;11.82;78.00;101754.03;5030875;28;20038;-74
2022/05/22 03:45:37;;;;;;;17.55;9.52;;;;;;;11.79;78.11;101748.72;5031419;28;20025;-74
2022/05/22 03:48:03;;;;;;;16.55;9.68;;;;;;;11.79;78.65;101748.72;5029221;28;20029;-74
2022/05/22 03:50:29;;;;;;;20.00;10.63;;;;;;;11.76;78.53;101747.69;5002567;28;20033;-74
2022/05/22 03:52:54;;;;;;;17.67;11.30;;;;;;;11.76;78.21;101732.03;5030556;28;20028;-74
2022/05/22 03:55:19;;;;;;;20.25;12.20;;;;;;;11.76;78.37;101739.88;5030742;28;20093;-74
2022/05/22 03:57:47;;;;;;;21.85;13.10;;;;;;;11.78;78.64;101736.47;5023108;28;20076;-74
2022/05/22 04:00:13;;;;;;;21.60;11.65;;;;;;;11.78;78.31;101746.06;5031016;28;20025;-74
2022/05/22 04:02:38;;;;;;;14.73;10.88;;;;;;;11.75;78.59;101745.94;5027955;28;20032;-74
2022/05/22 04:05:07;;;;;;;18.60;10.75;;;;;;;11.70;78.03;101753.59;5017430;28;20021;-74
2022/05/22 04:07:39;;;;;;;18.98;10.88;;;;;;;11.68;77.97;101754.41;5030148;28;20112;-74
2022/05/22 04:10:06;;;;;;;21.48;10.90;;;;;;;11.63;77.68;101760.34;5030926;28;20075;-74
2022/05/22 04:12:32;;;;;;;18.63;10.73;;;;;;;11.59;77.70;101749.78;5026775;28;20042;-74
2022/05/22 04:14:57;;;;;;;18.13;10.75;;;;;;;11.57;77.61;101747.09;5030781;28;20033;-74
2022/05/22 04:17:23;;;;;;;18.05;11.38;;;;;;;11.53;78.37;101750.44;5015853;28;20476;-74
2022/05/22 04:19:48;;;;;;;16.23;10.65;;;;;;;11.55;78.21;101748.75;5013752;28;20025;-74
2022/05/22 04:22:13;;;;;;;18.58;11.32;;;;;;;11.52;78.45;101746.06;5030825;28;20044;-74
2022/05/22 04:27:22;;;;;;;19.23;11.05;;;;;;;11.45;78.70;101746.69;5004624;28;20125;-74
2022/05/22 04:29:48;;;;;;;18.58;11.60;;;;;;;11.44;78.94;101737.97;5014414;28;20104;-74
2022/05/22 04:32:13;;;;;;;19.02;11.75;;;;;;;11.48;78.95;101738.94;5028831;28;20029;-74
2022/05/22 04:34:38;;;;;;;18.13;11.63;;;;;;;11.49;79.30;101735.50;5031083;28;20032;-74
2022/05/22 04:37:04;;;;;;;20.48;11.63;;;;;;;11.48;79.99;101739.84;5014315;28;20061;-74
2022/05/22 04:39:29;;;;;;;17.67;11.27;;;;;;;11.52;79.98;101737.34;5004752;28;20432;-74
2022/05/22 04:41:55;;;;;;;17.83;11.93;;;;;;;11.55;79.85;101742.66;5030565;28;20086;-74
2022/05/22 04:44:20;;;;;;;19.58;12.00;;;;;;;11.55;79.57;101740.94;5016954;28;20029;-74
2022/05/22 04:46:46;;;;;;;17.60;11.73;;;;;;;11.55;79.49;101743.53;5022011;28;20030;-74
2022/05/22 04:49:11;;;;;;;18.38;11.52;;;;;;;11.62;79.46;101750.75;5017755;28;20104;-74
2022/05/22 04:51:37;;;;;;;18.27;11.55;;;;;;;11.64;80.04;101742.97;5030350;28;20500;-74
2022/05/22 04:54:03;;;;;;;20.42;12.02;;;;;;;11.63;80.28;101747.31;5024083;28;20110;-74
2022/05/22 04:56:28;;;;;;;20.17;12.05;;;;;;;11.67;80.05;101750.91;5028920;28;20389;-74
2022/05/22 04:58:54;;;;;;;19.00;11.48;;;;;;;11.68;80.68;101736.13;5021975;28;20056;-74
2022/05/22 05:01:19;;;;;;;21.95;12.52;;;;;;;11.70;80.60;101745.78;5015734;28;20085;-74
2022/05/22 05:03:44;;;;;;;23.35;13.13;;;;;;;11.73;80.74;101734.56;5022922;28;20025;-74
2022/05/22 05:06:10;;;;;;;19.88;12.95;;;;;;;11.76;80.97;101732.94;5031057;28;20036;-74
2022/05/22 05:08:35;;;;;;;21.27;13.57;;;;;;;11.78;80.90;101728.66;5010935;28;20081;-74
2022/05/22 05:11:01;;;;;;;20.83;13.25;;;;;;;11.82;80.31;101727.03;5019493;28;20029;-74
2022/05/22 05:13:27;;;;;;;20.80;13.45;;;;;;;11.87;80.85;101727.19;5033997;28;20477;-73
2022/05/22 05:16:07;;;;;;;22.23;13.40;;;;;;;11.88;80.62;101727.22;5020354;28;20025;-74
2022/05/22 05:18:35;;;;;;;23.73;14.45;;;;;;;11.88;81.33;101722.00;5005118;28;20029;-74
2022/05/22 05:21:04;;;;;;;23.17;14.90;;;;;;;11.91;81.20;101726.44;5009059;28;20017;-74
2022/05/22 05:23:29;;;;;;;25.80;16.02;;;;;;;11.95;81.38;101734.47;5024903;28;20489;-74
2022/05/22 05:25:54;;;;;;;25.60;16.27;;;;;;;11.97;81.45;101727.53;5034124;28;20100;-74
2022/05/22 05:28:20;;;;;;;27.13;16.73;;;;;;;11.99;81.60;101725.88;5026217;28;20027;-74
2022/05/22 05:30:45;;;;;;;24.40;18.35;;;;;;;12.03;81.62;101737.31;5027756;28;20028;-73
2022/05/22 05:33:10;;;;;;;24.25;18.70;;;;;;;12.05;81.93;101733.03;5021469;28;20033;-74
2022/05/22 05:35:37;;;;;;;31.95;19.25;;;;;;;12.08;81.83;101735.75;5007701;28;20436;-74
2022/05/22 05:38:02;;;;;;;28.60;19.63;;;;;;;12.11;81.90;101740.19;5032000;28;20040;-74
2022/05/22 05:40:28;;;;;;;31.40;20.25;;;;;;;12.15;82.21;101744.63;5018259;28;20021;-73
2022/05/22 05:42:54;;;;;;;29.23;20.40;;;;;;;12.18;82.15;101736.94;5026098;28;20037;-74
2022/05/22 05:45:19;;;;;;;32.13;20.40;;;;;;;12.20;82.22;101740.47;5005847;28;20021;-74
2022/05/22 05:47:48;;;;;;;30.15;19.35;;;;;;;12.24;81.39;101739.72;5011484;28;20580;-74
2022/05/22 05:50:22;;;;;;;27.02;19.42;;;;;;;12.32;80.66;101734.72;5031716;28;20033;-74
2022/05/22 05:52:51;;;;;;;26.63;19.65;;;;;;;12.40;81.24;101741.09;5033620;28;20396;-74
2022/05/22 05:55:17;;;;;;;28.88;19.20;;;;;;;12.49;81.09;101737.84;5018778;28;20030;-74
2022/05/22 05:57:43;;;;;;;27.15;17.40;;;;;;;12.63;79.91;101736.53;4999542;28;20033;-73
2022/05/22 06:00:11;;;;;;;26.02;17.83;;;;;;;12.75;80.10;101740.38;5016077;28;20026;-73
2022/05/22 06:02:36;;;;;;;25.75;17.90;;;;;;;12.85;79.02;101745.88;5011092;28;20034;-73
2022/05/22 06:05:02;;;;;;;27.55;20.20;;;;;;;12.94;80.20;101744.38;5029908;28;20029;-73
2022/05/22 06:07:28;;;;;;;27.67;18.55;;;;;;;13.00;78.95;101739.31;5018847;28;20552;-73
2022/05/22 06:09:54;;;;;;;27.88;19.02;;;;;;;13.05;79.13;101736.00;5020321;28;20025;-73
2022/05/22 06:12:19;;;;;;;27.60;18.95;;;;;;;13.10;79.43;101743.09;5027662;28;20077;-73
2022/05/22 06:14:46;;;;;;;28.77;18.75;;;;;;;13.16;78.65;101743.25;5003907;28;20022;-73
2022/05/22 06:17:12;;;;;;;26.77;17.38;;;;;;;13.25;77.96;101740.00;5028776;28;20507;-73
2022/05/22 06:22:24;;;;;;;24.02;16.48;;;;;;;13.33;77.18;101743.72;5023301;28;20062;-73
2022/05/22 06:24:50;;;;;;;24.73;17.20;;;;;;;13.37;76.95;101733.41;5000408;28;20073;-73
2022/05/22 06:27:15;;;;;;;26.77;18.13;;;;;;;13.43;77.25;101742.28;5012762;28;20108;-73
2022/05/22 06:29:42;;;;;;;25.85;17.48;;;;;;;13.47;75.27;101744.09;5007867;28;20537;-73
2022/05/22 06:32:10;;;;;;;27.70;18.08;;;;;;;13.54;76.87;101746.94;5021401;28;20255;-73
2022/05/22 06:34:40;;;;;;;23.80;16.95;;;;;;;13.60;77.39;101748.81;5013327;28;20484;-73
2022/05/22 06:37:07;;;;;;;28.40;17.95;;;;;;;13.63;77.16;101753.22;5017883;28;20034;-73
2022/05/22 06:42:42;;;;;;;26.25;17.55;;;;;;;13.64;76.54;101755.88;5017849;28;20480;-73
2022/05/22 06:45:19;;;;;;;25.75;16.95;;;;;;;13.62;75.69;101747.13;4991222;28;20477;-73
2022/05/22 06:47:45;;;;;;;28.80;17.70;;;;;;;13.65;76.39;101754.19;5004858;28;20030;-73
2022/05/22 06:50:15;;;;;;;25.52;17.30;;;;;;;13.65;77.49;101756.78;5032330;28;20124;-73
2022/05/22 06:52:41;;;;;;;25.63;17.80;;;;;;;13.69;77.00;101758.66;5005176;28;20030;-73
2022/05/22 06:55:07;;;;;;;27.30;18.00;;;;;;;13.75;77.22;101753.56;5032449;28;20095;-73
2022/05/22 06:57:32;;;;;;;26.15;17.65;;;;;;;13.83;77.82;101751.13;5011773;28;20026;-73
2022/05/22 06:59:59;;;;;;;28.25;17.48;;;;;;;13.88;76.87;101755.63;5032043;28;20476;-73
2022/05/22 07:02:29;;;;;;;30.15;18.45;;;;;;;13.93;76.66;101750.50;5025526;28;20057;-73
2022/05/22 07:04:59;;;;;;;27.30;17.92;;;;;;;13.98;76.05;101754.13;4988850;28;20026;-73
2022/05/22 07:07:25;;;;;;;29.45;17.58;;;;;;;14.01;75.10;101743.72;5006654;28;20038;-73
2022/05/22 07:09:51;;;;;;;27.98;17.95;;;;;;;14.08;75.98;101742.13;5025996;28;20022;-74
2022/05/22 07:12:18;;;;;;;27.77;19.00;;;;;;;14.14;76.97;101744.88;5003602;28;20560;-73
2022/05/22 07:14:43;;;;;;;30.45;19.60;;;;;;;14.20;77.36;101745.03;5014181;28;20026;-73
2022/05/22 07:17:12;;;;;;;26.30;17.38;;;;;;;14.26;76.27;101747.81;5005280;28;20061;-72
2022/05/22 07:19:37;;;;;;;30.53;18.47;;;;;;;14.33;76.66;101745.31;5029790;28;20033;-72
2022/05/22 07:22:05;;;;;;;29.75;19.42;;;;;;;14.42;78.30;101746.44;5020942;28;20026;-72
2022/05/22 07:24:30;;;;;;;30.48;18.27;;;;;;;14.48;76.63;101743.03;5011868;28;20017;-72
2022/05/22 07:26:55;;;;;;;29.45;18.20;;;;;;;14.56;76.71;101743.22;5020744;28;20448;-72
2022/05/22 07:29:21;;;;;;;29.17;19.75;;;;;;;14.64;77.58;101736.41;5018762;28;20033;-72
2022/05/22 07:31:46;;;;;;;27.15;18.48;;;;;;;14.69;76.58;101731.28;5031817;28;20546;-72
2022/05/22 07:34:11;;;;;;;28.23;18.52;;;;;;;14.74;75.64;101727.91;5017355;28;20026;-72
2022/05/22 07:36:37;;;;;;;30.80;19.33;;;;;;;14.80;77.57;101728.88;5004276;28;20057;-72
2022/05/22 07:39:03;;;;;;;27.02;18.35;;;;;;;14.81;74.35;101735.88;5020174;28;20038;-72
2022/05/22 07:41:29;;;;;;;27.50;18.17;;;;;;;14.81;74.49;101733.25;5010509;28;20030;-72
2022/05/22 07:43:55;;;;;;;24.98;18.27;;;;;;;14.85;74.57;101733.34;5001001;28;20025;-72
2022/05/22 07:46:20;;;;;;;31.10;18.95;;;;;;;14.92;76.42;101737.00;4999213;28;20082;-72
2022/05/22 07:48:45;;;;;;;28.42;19.17;;;;;;;14.95;76.76;101737.94;5012293;28;20378;-72
2022/05/22 07:51:12;;;;;;;28.13;18.50;;;;;;;15.00;75.19;101732.75;5031311;28;20029;-72
2022/05/22 07:53:37;;;;;;;29.48;17.80;;;;;;;15.02;74.35;101733.69;4988985;28;20035;-73
2022/05/22 07:56:03;;;;;;;25.73;16.40;;;;;;;15.07;74.55;101720.66;5002503;28;20038;-73
2022/05/22 07:58:29;;;;;;;25.30;17.17;;;;;;;15.08;73.11;101727.69;5000629;28;20026;-73
2022/05/22 08:00:56;;;;;;;26.90;16.33;;;;;;;15.12;74.09;101716.41;5005485;28;20060;-73
2022/05/22 08:03:22;;;;;;;26.17;15.80;;;;;;;15.15;73.06;101702.41;5003813;28;20028;-73
2022/05/22 08:05:48;;;;;;;20.98;13.82;;;;;;;15.20;71.67;101703.41;5008314;28;20021;-73
2022/05/22 08:08:14;;;;;;;23.83;14.68;;;;;;;15.25;72.75;101709.59;5001266;28;20033;-73
2022/05/22 08:10:41;;;;;;;23.60;15.13;;;;;;;15.30;72.63;101707.97;5002758;28;20027;-74
2022/05/22 08:13:08;;;;;;;23.17;15.45;;;;;;;15.40;73.17;101703.75;4986581;28;20140;-73
2022/05/22 08:15:35;;;;;;;23.88;14.82;;;;;;;15.46;72.74;101696.84;4995923;28;20041;-73
2022/05/22 08:18:01;;;;;;;24.17;15.15;;;;;;;15.52;70.05;101696.06;4996241;28;20133;-74
2022/05/22 08:20:29;;;;;;;22.90;14.93;;;;;;;15.61;71.72;101684.84;5000734;28;20121;-72
2022/05/22 08:22:57;;;;;;;27.45;14.90;;;;;;;15.64;70.60;101682.25;4986715;28;20045;-72
2022/05/22 08:25:25;;;;;;;24.33;14.80;;;;;;;15.73;71.63;101684.13;5012977;28;20040;-71
2022/05/22 08:27:51;;;;;;;22.33;14.05;;;;;;;15.78;74.29;101672.88;4997299;28;20053;-71
2022/05/22 08:30:18;;;;;;;16.95;11.18;;;;;;;15.85;68.62;101670.38;4995512;28;20032;-71
2022/05/22 08:35:29;;;;;;;17.80;10.38;;;;;;;15.89;66.12;101666.91;5087633;22;20061;-69
2022/05/22 08:37:54;;;;;;;18.15;9.75;;;;;;;15.92;66.27;101661.72;5025845;28;20113;-69
2022/05/22 08:40:22;;;;;;;14.77;7.88;;;;;;;15.94;66.88;101652.09;5015257;28;20108;-69
2022/05/22 08:43:10;;;;;;;13.73;6.70;;;;;;;16.01;65.04;101651.31;5021584;28;20113;-70
2022/05/22 08:45:52;;;;;;;12.95;6.20;;;;;;;16.05;63.39;101650.50;5028698;28;20037;-70
2022/05/22 08:48:40;;;;;;;14.90;6.82;;;;;;;16.08;61.75;101647.03;5028974;28;20431;-69
2022/05/22 08:51:17;;;;;;;13.82;7.32;;;;;;;16.13;62.86;101646.25;5029618;28;20104;-69
2022/05/22 08:53:52;;;;;;;17.40;7.60;;;;;;;16.17;62.82;101641.91;5030255;28;20025;-69
2022/05/22 08:59:09;;;;;;;;;;;;;;;16.26;65.28;101642.00;5030847;28;20112;-70
2022/05/22 09:01:40;;;;;;;15.18;7.97;;;;;;;16.30;61.20;101635.06;5029533;28;19909;-69
2022/05/22 09:04:12;;;;;;;15.57;7.28;;;;;;;16.39;62.21;101632.53;5022178;28;20322;-69
2022/05/22 09:06:51;;;;;;;18.42;8.18;;;;;;;16.44;60.85;101629.97;5024793;28;20036;-70
2022/05/22 09:09:17;;;;;;;13.68;7.13;;;;;;;16.54;63.83;101629.22;5029892;28;20488;-69
2022/05/22 09:12:10;;;;;;;15.05;7.68;;;;;;;16.58;62.43;101619.59;5028006;28;20053;-70
2022/05/22 09:14:44;;;;;;;16.63;7.50;;;;;;;16.65;63.80;101624.06;5028321;28;20026;-70
2022/05/22 09:17:34;;;;;;;12.88;7.35;;;;;;;16.74;62.57;101616.25;5016080;28;20052;-70
2022/05/22 09:20:09;;;;;;;15.82;7.70;;;;;;;16.78;59.62;101609.28;5026841;28;20056;-69
2022/05/22 09:23:02;;;;;;;16.05;7.80;;;;;;;16.82;62.46;101613.72;5020843;28;20484;-69
2022/05/22 09:26:00;;;;;;;17.35;9.32;;;;;;;16.86;61.03;101613.75;5017579;28;20199;-70
2022/05/22 09:28:55;;;;;;;21.55;9.43;;;;;;;16.84;61.11;101604.06;5028485;28;20595;-69
2022/05/22 09:31:44;;;;;;;16.95;9.40;;;;;;;16.77;60.19;101596.97;5029946;28;20036;-70
2022/05/22 09:34:28;;;;;;;19.35;10.15;;;;;;;16.77;59.70;101607.50;5020968;28;20336;-69
2022/05/22 09:37:18;;;;;;;22.00;10.23;;;;;;;16.80;60.78;101608.44;5010364;28;20058;-70
2022/05/22 09:39:52;;;;;;;21.05;9.75;;;;;;;16.89;62.22;101598.88;5008103;28;20030;-70
2022/05/22 09:42:51;;;;;;;19.58;10.45;;;;;;;16.96;62.57;101592.81;5008584;28;20022;-70
2022/05/22 09:45:28;;;;;;;22.60;11.10;;;;;;;16.99;59.50;101588.47;4997020;28;20388;-70
2022/05/22 09:48:15;;;;;;;18.08;9.75;;;;;;;17.06;60.67;101584.16;5010179;28;20025;-70
2022/05/22 09:50:48;;;;;;;19.98;11.02;;;;;;;17.07;59.75;101579.75;5008926;28;20048;-69
2022/05/22 09:54:08;;;;;;;22.27;10.82;;;;;;;17.08;60.13;101571.00;5012399;28;20034;-70
2022/05/22 09:56:55;;;;;;;22.52;11.10;;;;;;;17.18;63.20;101584.25;4986814;28;20559;-70
2022/05/22 09:59:39;;;;;;;17.42;10.27;;;;;;;17.16;58.61;101582.44;5013516;28;20179;-69
2022/05/22 10:02:15;;;;;;;23.25;11.18;;;;;;;17.23;59.96;101581.63;5012857;28;20512;-70
2022/05/22 10:04:46;;;;;;;20.42;11.27;;;;;;;17.31;63.77;101589.63;5013869;28;20030;-70
2022/05/22 10:07:32;;;;;;;25.83;11.55;;;;;;;17.42;63.62;101590.56;5012368;28;20033;-69
2022/05/22 10:10:02;;;;;;;19.83;11.13;;;;;;;17.46;58.96;101589.72;5012604;28;20167;-69
2022/05/22 10:12:51;;;;;;;22.00;11.98;;;;;;;17.53;58.75;101591.50;5011902;28;20124;-70
2022/05/22 10:15:26;;;;;;;19.40;11.63;;;;;;;17.64;60.47;101590.69;5007817;28;20033;-69
2022/05/22 10:18:03;;;;;;;16.83;10.70;;;;;;;17.72;59.11;101583.72;5013169;28;20026;-69
2022/05/22 10:20:37;;;;;;;18.95;10.80;;;;;;;17.80;56.97;101579.41;5011427;28;20108;-69
2022/05/22 10:23:40;;;;;;;18.08;10.60;;;;;;;17.81;59.15;101578.50;5011063;28;20022;-69
2022/05/22 10:26:27;;;;;;;19.10;9.75;;;;;;;17.77;58.00;101575.84;5013145;28;20022;-69
2022/05/22 10:29:04;;;;;;;18.50;11.65;;;;;;;17.82;56.66;101575.00;5012717;28;20072;-69
2022/05/22 10:31:40;;;;;;;18.80;11.95;;;;;;;17.93;58.91;101563.66;5012135;28;20030;-69
2022/05/22 10:34:24;;;;;;;21.98;10.57;;;;;;;17.96;58.42;101569.84;5011861;28;20042;-69
2022/05/22 10:36:57;;;;;;;19.20;11.40;;;;;;;18.06;58.84;101568.09;4999714;28;20544;-69
2022/05/22 10:39:22;;;;;;;18.60;11.73;;;;;;;18.07;55.09;101556.69;5009802;28;20022;-69
2022/05/22 10:44:45;;;;;;;22.27;11.15;;;;;;;18.26;55.99;101549.72;5012090;28;20087;-70
2022/05/22 10:47:10;;;;;;;;;;;;;;;18.33;57.58;101548.84;5012561;28;20072;-69
2022/05/22 10:49:39;;;;;;;15.00;10.07;;;;;;;18.39;56.76;101540.06;5012660;28;19918;-69
2022/05/22 10:52:07;;;;;;;18.95;10.48;;;;;;;18.43;55.65;101531.31;5011972;28;20300;-69
2022/05/22 10:54:50;;;;;;;19.38;10.73;;;;;;;18.55;55.69;101522.50;5011785;28;20065;-69
2022/05/22 10:57:22;;;;;;;18.45;11.18;;;;;;;18.58;56.88;101523.41;5012475;28;20025;-69
2022/05/22 10:59:48;;;;;;;19.67;11.35;;;;;;;18.57;57.85;101516.38;5009860;28;20489;-69
2022/05/22 11:02:25;;;;;;;19.52;11.63;;;;;;;18.60;59.18;101508.44;4996359;28;20030;-69
2022/05/22 11:04:53;;;;;;;20.42;12.50;;;;;;;18.67;55.50;101505.81;5007313;28;20184;-69
2022/05/22 11:07:51;;;;;;;22.63;11.98;;;;;;;18.78;58.40;101514.63;5012080;28;20026;-69
2022/05/22 11:10:21;;;;;;;18.40;10.77;;;;;;;18.87;56.88;101504.09;5011018;28;20401;-69
2022/05/22 11:12:59;;;;;;;18.63;10.70;;;;;;;18.93;54.64;101513.78;5012438;28;20034;-69
2022/05/22 11:15:28;;;;;;;13.63;9.50;;;;;;;19.05;55.81;101512.91;5008704;28;20034;-69
2022/05/22 11:18:10;;;;;;;20.67;11.57;;;;;;;19.13;56.02;101515.53;5006236;28;20037;-70
2022/05/22 11:20:43;;;;;;;19.60;10.80;;;;;;;19.19;55.65;101500.56;4992178;28;20041;-70
2022/05/22 11:23:20;;;;;;;20.23;11.10;;;;;;;19.27;55.93;101493.47;4998453;28;20117;-70
2022/05/22 11:26:12;;;;;;;19.65;10.93;;;;;;;19.33;54.56;101497.00;5012093;28;20033;-70
2022/05/22 11:29:07;;;;;;;18.63;10.90;;;;;;;19.41;55.27;101484.66;5011126;28;20104;-69
2022/05/22 11:31:59;;;;;;;19.38;11.50;;;;;;;19.41;54.18;101477.59;5011129;28;20018;-69
2022/05/22 11:34:43;;;;;;;17.02;11.15;;;;;;;19.46;52.42;101478.47;5010830;28;20052;-69
2022/05/22 11:37:23;;;;;;;21.70;12.35;;;;;;;19.55;54.23;101469.63;5011685;28;20068;-70
2022/05/22 11:40:26;;;;;;;23.50;12.88;;;;;;;19.57;55.34;101459.06;5009962;28;20166;-70
2022/05/22 11:43:07;;;;;;;20.13;13.10;;;;;;;19.55;50.87;101453.78;5010362;28;20034;-70